createdAt,value
2017-02-11T00:00:23.672Z,22.44
2017-02-11T00:00:51.857Z,22.51
2017-02-11T00:01:19.862Z,22.44
2017-02-11T00:01:48.058Z,22.51
2017-02-11T00:02:16.169Z,22.45
2017-02-11T00:02:44.298Z,22.46
2017-02-11T00:03:12.490Z,22.44
2017-02-11T00:03:40.458Z,22.46
2017-02-11T00:04:08.532Z,22.44
2017-02-11T00:04:36.614Z,22.49
2017-02-11T00:05:04.692Z,22.46
2017-02-11T00:05:32.808Z,22.41
2017-02-11T00:06:01.017Z,22.45
2017-02-11T00:06:29.153Z,22.52
2017-02-11T00:06:57.217Z,22.55
2017-02-11T00:07:25.435Z,22.48
2017-02-11T00:07:53.489Z,22.54
2017-02-11T00:08:21.714Z,22.51
2017-02-11T00:08:49.825Z,22.52
2017-02-11T00:09:17.730Z,22.57
2017-02-11T00:09:45.953Z,22.59
2017-02-11T00:10:13.956Z,22.57
2017-02-11T00:10:41.963Z,22.52
2017-02-11T00:11:10.001Z,22.51
2017-02-11T00:11:37.904Z,22.49
2017-02-11T00:12:05.712Z,22.52
2017-02-11T00:12:33.876Z,22.45
2017-02-11T00:13:01.941Z,22.51
2017-02-11T00:13:30.167Z,22.55
2017-02-11T00:13:58.375Z,22.51
2017-02-11T00:14:26.575Z,22.52
2017-02-11T00:14:54.746Z,22.41
2017-02-11T00:15:22.973Z,22.48
2017-02-11T00:15:51.136Z,22.48
2017-02-11T00:16:19.319Z,22.45
2017-02-11T00:16:47.514Z,22.42
2017-02-11T00:17:15.720Z,22.34
2017-02-11T00:17:43.910Z,22.3
2017-02-11T00:18:12.200Z,22.22
2017-02-11T00:18:40.199Z,22.23
2017-02-11T00:19:08.389Z,22.26
2017-02-11T00:19:36.595Z,22.27
2017-02-11T00:20:04.776Z,22.36
2017-02-11T00:20:32.954Z,22.33
2017-02-11T00:21:01.057Z,22.24
2017-02-11T00:21:29.185Z,22.3
2017-02-11T00:21:57.264Z,22.34
2017-02-11T00:22:25.287Z,22.27
2017-02-11T00:22:53.483Z,22.24
2017-02-11T00:23:21.688Z,22.31
2017-02-11T00:23:49.809Z,22.24
2017-02-11T00:24:17.899Z,22.36
2017-02-11T00:24:45.934Z,22.34
2017-02-11T00:25:13.930Z,22.27
2017-02-11T00:25:42.090Z,22.38
2017-02-11T00:26:10.219Z,22.39
2017-02-11T00:26:38.373Z,22.39
2017-02-11T00:27:06.514Z,22.31
2017-02-11T00:27:34.623Z,22.34
2017-02-11T00:28:02.534Z,22.38
2017-02-11T00:28:30.753Z,22.22
2017-02-11T00:28:58.881Z,22.3
2017-02-11T00:29:27.100Z,22.29
2017-02-11T00:29:55.297Z,22.29
2017-02-11T00:30:23.336Z,22.3
2017-02-11T00:30:51.533Z,22.22
2017-02-11T00:31:19.672Z,22.36
2017-02-11T00:31:47.765Z,22.34
2017-02-11T00:32:15.879Z,22.36
2017-02-11T00:32:44.221Z,22.38
2017-02-11T00:33:12.212Z,22.41
2017-02-11T00:33:40.283Z,22.44
2017-02-11T00:34:08.271Z,22.33
2017-02-11T00:34:36.398Z,22.39
2017-02-11T00:35:04.432Z,22.49
2017-02-11T00:35:32.368Z,22.52
2017-02-11T00:36:00.453Z,22.49
2017-02-11T00:36:28.655Z,22.45
2017-02-11T00:36:56.857Z,22.46
2017-02-11T00:37:24.875Z,22.45
2017-02-11T00:37:53.185Z,22.51
2017-02-11T00:38:21.225Z,22.48
2017-02-11T00:38:49.673Z,22.49
2017-02-11T00:39:17.682Z,22.52
2017-02-11T00:39:45.838Z,22.51
2017-02-11T00:40:13.968Z,22.51
2017-02-11T00:40:42.173Z,22.48
2017-02-11T00:41:10.264Z,22.38
2017-02-11T00:41:38.456Z,22.44
2017-02-11T00:42:06.569Z,22.55
2017-02-11T00:42:34.719Z,22.45
2017-02-11T00:43:02.874Z,22.44
2017-02-11T00:43:30.779Z,22.54
2017-02-11T00:43:58.916Z,22.54
2017-02-11T00:44:27.046Z,22.57
2017-02-11T00:44:55.213Z,22.46
2017-02-11T00:45:23.131Z,22.38
2017-02-11T00:45:51.310Z,22.49
2017-02-11T00:46:19.431Z,22.49
2017-02-11T00:46:47.549Z,22.46
2017-02-11T00:47:15.704Z,22.39
2017-02-11T00:47:43.937Z,22.38
2017-02-11T00:48:12.126Z,22.42
2017-02-11T00:48:40.228Z,22.34
2017-02-11T00:49:08.378Z,22.42
2017-02-11T00:49:36.470Z,22.39
2017-02-11T00:50:04.309Z,22.39
2017-02-11T00:50:32.302Z,22.46
2017-02-11T00:51:00.439Z,22.48
2017-02-11T00:51:28.553Z,22.46
2017-02-11T00:51:56.667Z,22.45
2017-02-11T00:52:24.855Z,22.46
2017-02-11T00:52:53.058Z,22.45
2017-02-11T00:53:20.939Z,22.48
2017-02-11T00:53:48.971Z,22.55
2017-02-11T00:54:16.915Z,22.49
2017-02-11T00:54:44.962Z,22.54
2017-02-11T00:55:13.098Z,22.44
2017-02-11T00:55:41.189Z,22.45
2017-02-11T00:56:09.246Z,22.51
2017-02-11T00:56:37.484Z,22.44
2017-02-11T00:57:05.454Z,22.41
2017-02-11T00:57:33.607Z,22.36
2017-02-11T00:58:01.731Z,22.42
2017-02-11T00:58:30.000Z,22.33
2017-02-11T00:58:58.030Z,22.41
2017-02-11T00:59:26.224Z,22.38
2017-02-11T00:59:54.131Z,22.41
2017-02-11T01:00:22.251Z,22.36
2017-02-11T01:00:50.302Z,22.42
2017-02-11T01:01:18.404Z,22.48
2017-02-11T01:01:46.505Z,22.39
2017-02-11T01:02:14.639Z,22.42
2017-02-11T01:02:42.796Z,22.39
2017-02-11T01:03:10.959Z,22.46
2017-02-11T01:03:39.168Z,22.48
2017-02-11T01:04:07.203Z,22.51
2017-02-11T01:04:35.302Z,22.38
2017-02-11T01:05:03.487Z,22.49
2017-02-11T01:05:31.621Z,22.48
2017-02-11T01:05:59.745Z,22.52
2017-02-11T01:06:27.846Z,22.54
2017-02-11T01:06:55.979Z,22.51
2017-02-11T01:07:23.982Z,22.45
2017-02-11T01:07:52.015Z,22.45
2017-02-11T01:08:20.137Z,22.44
2017-02-11T01:08:48.384Z,22.46
2017-02-11T01:09:16.521Z,22.41
2017-02-11T01:09:44.697Z,22.55
2017-02-11T01:10:12.751Z,22.51
2017-02-11T01:10:40.934Z,22.54
2017-02-11T01:11:09.123Z,22.51
2017-02-11T01:11:37.150Z,22.51
2017-02-11T01:12:05.269Z,22.6
2017-02-11T01:12:33.404Z,22.49
2017-02-11T01:13:01.604Z,22.48
2017-02-11T01:13:29.788Z,22.48
2017-02-11T01:13:57.860Z,22.49
2017-02-11T01:14:25.861Z,22.55
2017-02-11T01:14:53.971Z,22.51
2017-02-11T01:15:22.104Z,22.6
2017-02-11T01:15:50.189Z,22.52
2017-02-11T01:16:18.350Z,22.52
2017-02-11T01:16:46.349Z,22.49
2017-02-11T01:17:14.433Z,22.54
2017-02-11T01:17:42.576Z,22.55
2017-02-11T01:18:10.867Z,22.6
2017-02-11T01:18:39.079Z,22.55
2017-02-11T01:19:07.011Z,22.51
2017-02-11T01:19:35.063Z,22.55
2017-02-11T01:20:03.064Z,22.57
2017-02-11T01:20:31.291Z,22.52
2017-02-11T01:20:59.448Z,22.54
2017-02-11T01:21:27.616Z,22.55
2017-02-11T01:21:55.633Z,22.55
2017-02-11T01:22:23.830Z,22.52
2017-02-11T01:22:51.984Z,22.51
2017-02-11T01:23:20.279Z,22.54
2017-02-11T01:23:48.592Z,22.48
2017-02-11T01:24:16.687Z,22.51
2017-02-11T01:24:44.708Z,22.51
2017-02-11T01:25:12.900Z,22.46
2017-02-11T01:25:40.972Z,22.57
2017-02-11T01:26:09.172Z,22.51
2017-02-11T01:26:37.401Z,22.54
2017-02-11T01:27:05.580Z,22.52
2017-02-11T01:27:33.783Z,22.54
2017-02-11T01:28:01.932Z,22.51
2017-02-11T01:28:29.938Z,22.49
2017-02-11T01:28:58.084Z,22.55
2017-02-11T01:29:26.175Z,22.52
2017-02-11T01:29:53.994Z,22.55
2017-02-11T01:30:22.236Z,22.52
2017-02-11T01:30:50.254Z,22.59
2017-02-11T01:31:18.264Z,22.6
2017-02-11T01:31:46.447Z,22.61
2017-02-11T01:32:15.205Z,22.59
2017-02-11T01:32:43.201Z,22.66
2017-02-11T01:33:11.441Z,22.64
2017-02-11T01:33:39.585Z,22.63
2017-02-11T01:34:07.815Z,22.6
2017-02-11T01:34:35.874Z,22.67
2017-02-11T01:35:04.153Z,22.66
2017-02-11T01:35:32.304Z,22.64
2017-02-11T01:36:00.322Z,22.73
2017-02-11T01:36:28.543Z,22.64
2017-02-11T01:36:56.724Z,22.75
2017-02-11T01:37:24.843Z,22.61
2017-02-11T01:37:53.055Z,22.63
2017-02-11T01:38:21.276Z,22.6
2017-02-11T01:38:49.341Z,22.59
2017-02-11T01:39:17.419Z,22.55
2017-02-11T01:39:45.591Z,22.52
2017-02-11T01:40:13.700Z,22.55
2017-02-11T01:40:41.711Z,22.57
2017-02-11T01:41:09.814Z,22.55
2017-02-11T01:41:38.034Z,22.55
2017-02-11T01:42:06.224Z,22.6
2017-02-11T01:42:34.469Z,22.61
2017-02-11T01:43:02.533Z,22.59
2017-02-11T01:43:30.659Z,22.52
2017-02-11T01:43:58.768Z,22.6
2017-02-11T01:44:26.879Z,22.6
2017-02-11T01:44:54.933Z,22.55
2017-02-11T01:45:23.105Z,22.6
2017-02-11T01:45:51.322Z,22.6
2017-02-11T01:46:19.493Z,22.57
2017-02-11T01:46:47.398Z,22.59
2017-02-11T01:47:15.409Z,22.63
2017-02-11T01:47:43.658Z,22.54
2017-02-11T01:48:11.932Z,22.54
2017-02-11T01:48:40.047Z,22.61
2017-02-11T01:49:08.166Z,22.52
2017-02-11T01:49:36.282Z,22.54
2017-02-11T01:50:04.409Z,22.57
2017-02-11T01:50:32.569Z,22.61
2017-02-11T01:51:00.760Z,22.59
2017-02-11T01:51:28.757Z,22.54
2017-02-11T01:51:56.860Z,22.54
2017-02-11T01:52:25.025Z,22.57
2017-02-11T01:52:52.966Z,22.49
2017-02-11T01:53:21.294Z,22.59
2017-02-11T01:53:49.475Z,22.55
2017-02-11T01:54:17.508Z,22.57
2017-02-11T01:54:45.547Z,22.46
2017-02-11T01:55:13.650Z,22.51
2017-02-11T01:55:41.776Z,22.49
2017-02-11T01:56:09.779Z,22.54
2017-02-11T01:56:37.962Z,22.6
2017-02-11T01:57:06.144Z,22.57
2017-02-11T01:57:34.216Z,22.57
2017-02-11T01:58:02.321Z,22.52
2017-02-11T01:58:30.651Z,22.55
2017-02-11T01:58:58.769Z,22.54
2017-02-11T01:59:26.857Z,22.57
2017-02-11T01:59:55.002Z,22.54
2017-02-11T02:00:23.143Z,22.57
2017-02-11T02:00:51.147Z,22.49
2017-02-11T02:01:19.236Z,22.49
2017-02-11T02:01:47.346Z,22.52
2017-02-11T02:02:15.367Z,22.41
2017-02-11T02:02:43.334Z,22.45
2017-02-11T02:03:11.309Z,22.45
2017-02-11T02:03:39.605Z,22.49
2017-02-11T02:04:07.620Z,22.38
2017-02-11T02:04:35.746Z,22.45
2017-02-11T02:05:03.833Z,22.41
2017-02-11T02:05:31.919Z,22.39
2017-02-11T02:06:00.145Z,22.38
2017-02-11T02:06:28.371Z,22.34
2017-02-11T02:06:56.593Z,22.36
2017-02-11T02:07:24.797Z,22.34
2017-02-11T02:07:52.899Z,22.26
2017-02-11T02:08:20.971Z,22.27
2017-02-11T02:08:49.137Z,22.33
2017-02-11T02:09:17.258Z,22.2
2017-02-11T02:09:45.175Z,22.33
2017-02-11T02:10:13.407Z,22.22
2017-02-11T02:10:41.519Z,22.29
2017-02-11T02:11:09.529Z,22.3
2017-02-11T02:11:37.728Z,22.18
2017-02-11T02:12:05.694Z,22.23
2017-02-11T02:12:33.785Z,22.18
2017-02-11T02:13:01.836Z,22.27
2017-02-11T02:13:30.091Z,22.34
2017-02-11T02:13:58.094Z,22.18
2017-02-11T02:14:26.024Z,22.18
2017-02-11T02:14:54.198Z,22.26
2017-02-11T02:15:22.480Z,22.27
2017-02-11T02:15:50.485Z,22.38
2017-02-11T02:16:18.622Z,22.34
2017-02-11T02:16:46.719Z,22.29
2017-02-11T02:17:14.844Z,22.36
2017-02-11T02:17:42.980Z,22.39
2017-02-11T02:18:11.146Z,22.26
2017-02-11T02:18:39.338Z,22.24
2017-02-11T02:19:07.417Z,22.29
2017-02-11T02:19:35.626Z,22.38
2017-02-11T02:20:03.814Z,22.26
2017-02-11T02:20:31.922Z,22.3
2017-02-11T02:21:00.058Z,22.27
2017-02-11T02:21:28.171Z,22.26
2017-02-11T02:21:56.247Z,22.31
2017-02-11T02:22:24.450Z,22.27
2017-02-11T02:22:52.541Z,22.26
2017-02-11T02:23:20.680Z,22.22
2017-02-11T02:23:48.955Z,22.18
2017-02-11T02:24:17.053Z,22.34
2017-02-11T02:24:45.295Z,22.24
2017-02-11T02:25:13.370Z,22.16
2017-02-11T02:25:41.482Z,22.23
2017-02-11T02:26:09.588Z,22.22
2017-02-11T02:26:37.623Z,22.24
2017-02-11T02:27:05.836Z,22.23
2017-02-11T02:27:34.033Z,22.23
2017-02-11T02:28:02.232Z,22.38
2017-02-11T02:28:30.342Z,22.24
2017-02-11T02:28:58.534Z,22.22
2017-02-11T02:29:26.795Z,22.18
2017-02-11T02:29:54.881Z,22.27
2017-02-11T02:30:22.884Z,22.3
2017-02-11T02:30:50.861Z,22.29
2017-02-11T02:31:19.149Z,22.23
2017-02-11T02:31:47.345Z,22.26
2017-02-11T02:32:15.489Z,22.26
2017-02-11T02:32:43.660Z,22.26
2017-02-11T02:33:11.662Z,22.24
2017-02-11T02:33:39.778Z,22.23
2017-02-11T02:34:07.780Z,22.27
2017-02-11T02:34:35.997Z,22.23
2017-02-11T02:35:04.041Z,22.2
2017-02-11T02:35:32.214Z,22.18
2017-02-11T02:36:00.437Z,22.24
2017-02-11T02:36:28.475Z,22.18
2017-02-11T02:36:56.673Z,22.23
2017-02-11T02:37:24.706Z,22.24
2017-02-11T02:37:52.788Z,22.24
2017-02-11T02:38:21.077Z,22.26
2017-02-11T02:38:49.396Z,22.23
2017-02-11T02:39:17.419Z,22.34
2017-02-11T02:39:45.555Z,22.38
2017-02-11T02:40:13.644Z,22.33
2017-02-11T02:40:41.820Z,22.26
2017-02-11T02:41:09.836Z,22.23
2017-02-11T02:41:37.780Z,22.18
2017-02-11T02:42:05.777Z,22.24
2017-02-11T02:42:34.065Z,22.16
2017-02-11T02:43:02.215Z,22.26
2017-02-11T02:43:30.408Z,22.2
2017-02-11T02:43:58.621Z,22.15
2017-02-11T02:44:26.818Z,22.27
2017-02-11T02:44:54.921Z,22.22
2017-02-11T02:45:23.119Z,22.23
2017-02-11T02:45:51.121Z,22.16
2017-02-11T02:46:19.421Z,22.2
2017-02-11T02:46:47.538Z,22.22
2017-02-11T02:47:15.827Z,22.22
2017-02-11T02:47:43.868Z,22.16
2017-02-11T02:48:12.036Z,22.16
2017-02-11T02:48:40.208Z,22.2
2017-02-11T02:49:08.400Z,22.15
2017-02-11T02:49:36.527Z,22.12
2017-02-11T02:50:04.958Z,22.15
2017-02-11T02:50:33.068Z,22.16
2017-02-11T02:51:01.219Z,22.2
2017-02-11T02:51:29.526Z,22.2
2017-02-11T02:51:57.811Z,22.2
2017-02-11T02:52:25.820Z,22.23
2017-02-11T02:52:54.033Z,22.18
2017-02-11T02:53:22.296Z,22.2
2017-02-11T02:53:50.391Z,22.15
2017-02-11T02:54:18.725Z,22.16
2017-02-11T02:54:46.917Z,22.08
2017-02-11T02:55:15.093Z,22.15
2017-02-11T02:55:43.200Z,21.99
2017-02-11T02:56:11.189Z,22
2017-02-11T02:56:39.271Z,21.96
2017-02-11T02:57:07.398Z,21.97
2017-02-11T02:57:35.602Z,21.97
2017-02-11T02:58:03.628Z,21.97
2017-02-11T02:58:31.883Z,21.97
2017-02-11T02:59:00.000Z,22.04
2017-02-11T02:59:28.006Z,21.99
2017-02-11T02:59:56.078Z,21.96
2017-02-11T03:00:24.179Z,21.96
2017-02-11T03:00:52.426Z,22.02
2017-02-11T03:01:20.438Z,21.97
2017-02-11T03:01:48.700Z,22
2017-02-11T03:02:16.795Z,21.93
2017-02-11T03:02:45.006Z,21.99
2017-02-11T03:03:13.092Z,21.92
2017-02-11T03:03:41.283Z,21.94
2017-02-11T03:04:09.402Z,21.94
2017-02-11T03:04:37.509Z,22
2017-02-11T03:05:05.468Z,21.97
2017-02-11T03:05:33.390Z,21.97
2017-02-11T03:06:01.512Z,22
2017-02-11T03:06:29.786Z,21.96
2017-02-11T03:06:58.001Z,21.97
2017-02-11T03:07:26.208Z,21.94
2017-02-11T03:07:54.340Z,21.94
2017-02-11T03:08:22.295Z,21.99
2017-02-11T03:08:50.398Z,21.94
2017-02-11T03:09:18.713Z,21.96
2017-02-11T03:09:46.906Z,21.94
2017-02-11T03:10:14.925Z,21.92
2017-02-11T03:10:42.888Z,21.97
2017-02-11T03:11:11.246Z,22
2017-02-11T03:11:39.209Z,21.93
2017-02-11T03:12:07.223Z,21.94
2017-02-11T03:12:35.263Z,22.04
2017-02-11T03:13:03.532Z,22.02
2017-02-11T03:13:31.490Z,21.97
2017-02-11T03:13:59.495Z,21.93
2017-02-11T03:14:27.646Z,21.94
2017-02-11T03:14:55.888Z,22
2017-02-11T03:15:24.028Z,21.92
2017-02-11T03:15:52.236Z,21.97
2017-02-11T03:16:20.638Z,22
2017-02-11T03:16:48.735Z,21.9
2017-02-11T03:17:16.836Z,22
2017-02-11T03:17:45.023Z,21.97
2017-02-11T03:18:13.357Z,21.97
2017-02-11T03:18:41.597Z,22
2017-02-11T03:19:09.682Z,22.02
2017-02-11T03:19:37.843Z,22.02
2017-02-11T03:20:06.103Z,22
2017-02-11T03:20:34.119Z,21.9
2017-02-11T03:21:02.210Z,21.97
2017-02-11T03:21:30.572Z,21.94
2017-02-11T03:21:58.787Z,21.93
2017-02-11T03:22:26.768Z,21.86
2017-02-11T03:22:54.757Z,21.9
2017-02-11T03:23:22.989Z,21.85
2017-02-11T03:23:51.133Z,21.77
2017-02-11T03:24:19.379Z,21.82
2017-02-11T03:24:47.393Z,21.83
2017-02-11T03:25:15.342Z,21.83
2017-02-11T03:25:43.519Z,21.74
2017-02-11T03:26:11.312Z,21.73
2017-02-11T03:26:39.467Z,21.7
2017-02-11T03:27:07.680Z,21.77
2017-02-11T03:27:35.854Z,21.8
2017-02-11T03:28:03.944Z,21.7
2017-02-11T03:28:31.944Z,21.7
2017-02-11T03:28:59.903Z,21.68
2017-02-11T03:29:28.095Z,21.76
2017-02-11T03:29:56.216Z,21.7
2017-02-11T03:30:24.322Z,21.78
2017-02-11T03:30:52.517Z,21.71
2017-02-11T03:31:20.519Z,21.68
2017-02-11T03:31:48.681Z,21.7
2017-02-11T03:32:16.754Z,21.78
2017-02-11T03:32:44.849Z,21.7
2017-02-11T03:33:13.032Z,21.77
2017-02-11T03:33:41.135Z,21.73
2017-02-11T03:34:09.328Z,21.71
2017-02-11T03:34:37.592Z,21.74
2017-02-11T03:35:05.758Z,21.77
2017-02-11T03:35:33.871Z,21.73
2017-02-11T03:36:01.854Z,21.77
2017-02-11T03:36:30.062Z,21.77
2017-02-11T03:36:58.194Z,21.78
2017-02-11T03:37:26.412Z,21.8
2017-02-11T03:37:54.703Z,21.74
2017-02-11T03:38:22.933Z,21.83
2017-02-11T03:38:51.028Z,21.77
2017-02-11T03:39:19.188Z,21.92
2017-02-11T03:39:47.582Z,21.85
2017-02-11T03:40:15.625Z,21.85
2017-02-11T03:40:43.721Z,21.85
2017-02-11T03:41:11.821Z,21.89
2017-02-11T03:41:39.835Z,21.85
2017-02-11T03:42:07.957Z,21.86
2017-02-11T03:42:36.167Z,21.82
2017-02-11T03:43:04.338Z,21.78
2017-02-11T03:43:32.449Z,21.83
2017-02-11T03:44:00.471Z,21.85
2017-02-11T03:44:28.805Z,21.86
2017-02-11T03:44:56.905Z,21.89
2017-02-11T03:45:24.932Z,21.89
2017-02-11T03:45:53.074Z,21.86
2017-02-11T03:46:21.273Z,21.89
2017-02-11T03:46:49.278Z,21.86
2017-02-11T03:47:17.496Z,21.86
2017-02-11T03:47:45.674Z,21.86
2017-02-11T03:48:13.755Z,21.86
2017-02-11T03:48:41.903Z,21.86
2017-02-11T03:49:10.003Z,21.86
2017-02-11T03:49:38.300Z,21.97
2017-02-11T03:50:06.393Z,21.97
2017-02-11T03:50:34.570Z,21.89
2017-02-11T03:51:02.588Z,21.97
2017-02-11T03:51:30.581Z,22
2017-02-11T03:51:58.528Z,21.94
2017-02-11T03:52:26.625Z,22
2017-02-11T03:52:54.855Z,21.93
2017-02-11T03:53:23.041Z,21.94
2017-02-11T03:53:51.119Z,21.93
2017-02-11T03:54:19.250Z,22
2017-02-11T03:54:47.572Z,22.02
2017-02-11T03:55:15.664Z,22
2017-02-11T03:55:43.900Z,22
2017-02-11T03:56:11.882Z,22
2017-02-11T03:56:40.226Z,21.97
2017-02-11T03:57:08.264Z,21.99
2017-02-11T03:57:36.185Z,21.97
2017-02-11T03:58:04.426Z,21.94
2017-02-11T03:58:32.740Z,21.99
2017-02-11T03:59:00.895Z,22.02
2017-02-11T03:59:29.027Z,21.93
2017-02-11T03:59:57.312Z,21.97
2017-02-11T04:00:25.194Z,21.94
2017-02-11T04:00:53.320Z,22
2017-02-11T04:01:21.545Z,22.05
2017-02-11T04:01:49.631Z,21.97
2017-02-11T04:02:17.856Z,22
2017-02-11T04:02:46.021Z,22.02
2017-02-11T04:03:14.095Z,22.04
2017-02-11T04:03:42.299Z,21.97
2017-02-11T04:04:10.585Z,22
2017-02-11T04:04:38.766Z,22
2017-02-11T04:05:06.903Z,21.99
2017-02-11T04:05:34.989Z,22
2017-02-11T04:06:03.100Z,21.96
2017-02-11T04:06:31.323Z,22.02
2017-02-11T04:06:59.298Z,22
2017-02-11T04:07:27.265Z,22.02
2017-02-11T04:07:55.427Z,22
2017-02-11T04:08:23.519Z,22
2017-02-11T04:08:51.618Z,21.99
2017-02-11T04:09:19.670Z,22
2017-02-11T04:09:47.861Z,21.94
2017-02-11T04:10:15.914Z,21.94
2017-02-11T04:10:44.194Z,21.93
2017-02-11T04:11:12.501Z,21.97
2017-02-11T04:11:40.477Z,21.99
2017-02-11T04:12:08.477Z,21.94
2017-02-11T04:12:36.647Z,21.94
2017-02-11T04:13:04.819Z,21.96
2017-02-11T04:13:32.910Z,21.92
2017-02-11T04:14:00.903Z,22
2017-02-11T04:14:28.857Z,21.92
2017-02-11T04:14:57.057Z,21.83
2017-02-11T04:15:25.158Z,21.85
2017-02-11T04:15:53.310Z,22.02
2017-02-11T04:16:21.401Z,21.92
2017-02-11T04:16:49.566Z,21.94
2017-02-11T04:17:17.733Z,21.89
2017-02-11T04:17:45.942Z,21.86
2017-02-11T04:18:14.238Z,21.93
2017-02-11T04:18:42.377Z,21.89
2017-02-11T04:19:10.497Z,21.9
2017-02-11T04:19:38.528Z,22
2017-02-11T04:20:06.975Z,22
2017-02-11T04:20:34.800Z,21.85
2017-02-11T04:21:02.901Z,21.82
2017-02-11T04:21:30.999Z,21.93
2017-02-11T04:21:59.041Z,21.99
2017-02-11T04:22:27.183Z,21.89
2017-02-11T04:22:55.319Z,21.99
2017-02-11T04:23:23.445Z,21.89
2017-02-11T04:23:51.561Z,21.89
2017-02-11T04:24:19.675Z,21.92
2017-02-11T04:24:47.809Z,21.97
2017-02-11T04:25:15.896Z,21.89
2017-02-11T04:25:44.095Z,21.85
2017-02-11T04:26:12.349Z,21.93
2017-02-11T04:26:40.422Z,21.96
2017-02-11T04:27:08.532Z,21.99
2017-02-11T04:27:36.637Z,21.97
2017-02-11T04:28:04.682Z,22.04
2017-02-11T04:28:32.694Z,22.02
2017-02-11T04:29:00.932Z,21.93
2017-02-11T04:29:28.870Z,21.92
2017-02-11T04:29:57.083Z,21.89
2017-02-11T04:30:25.197Z,21.8
2017-02-11T04:30:53.307Z,21.94
2017-02-11T04:31:21.259Z,21.93
2017-02-11T04:31:49.284Z,22
2017-02-11T04:32:17.522Z,21.89
2017-02-11T04:32:45.644Z,21.97
2017-02-11T04:33:13.798Z,22
2017-02-11T04:33:41.921Z,22
2017-02-11T04:34:10.058Z,22
2017-02-11T04:34:38.056Z,21.89
2017-02-11T04:35:06.388Z,21.8
2017-02-11T04:35:34.371Z,21.83
2017-02-11T04:36:02.508Z,21.85
2017-02-11T04:36:30.700Z,21.92
2017-02-11T04:36:58.833Z,21.92
2017-02-11T04:37:26.752Z,21.85
2017-02-11T04:37:54.750Z,21.83
2017-02-11T04:38:22.987Z,21.85
2017-02-11T04:38:51.125Z,21.82
2017-02-11T04:39:19.468Z,21.85
2017-02-11T04:39:47.668Z,21.85
2017-02-11T04:40:15.966Z,21.78
2017-02-11T04:40:44.161Z,21.82
2017-02-11T04:41:12.194Z,21.78
2017-02-11T04:41:40.249Z,21.82
2017-02-11T04:42:08.449Z,21.77
2017-02-11T04:42:36.495Z,21.8
2017-02-11T04:43:04.736Z,21.8
2017-02-11T04:43:32.681Z,21.76
2017-02-11T04:44:00.911Z,21.73
2017-02-11T04:44:28.966Z,21.73
2017-02-11T04:44:57.073Z,21.71
2017-02-11T04:45:25.221Z,21.82
2017-02-11T04:45:53.329Z,21.73
2017-02-11T04:46:21.345Z,21.77
2017-02-11T04:46:49.581Z,21.71
2017-02-11T04:47:17.704Z,21.68
2017-02-11T04:47:45.904Z,21.77
2017-02-11T04:48:14.065Z,21.73
2017-02-11T04:48:42.088Z,21.76
2017-02-11T04:49:10.248Z,21.66
2017-02-11T04:49:38.457Z,21.67
2017-02-11T04:50:06.870Z,21.66
2017-02-11T04:50:34.984Z,21.68
2017-02-11T04:51:03.081Z,21.59
2017-02-11T04:51:31.195Z,21.62
2017-02-11T04:51:59.281Z,21.58
2017-02-11T04:52:27.481Z,21.61
2017-02-11T04:52:55.474Z,21.61
2017-02-11T04:53:23.626Z,21.58
2017-02-11T04:53:51.604Z,21.62
2017-02-11T04:54:19.768Z,21.53
2017-02-11T04:54:47.887Z,21.61
2017-02-11T04:55:16.097Z,21.52
2017-02-11T04:55:44.027Z,21.49
2017-02-11T04:56:12.238Z,21.59
2017-02-11T04:56:40.423Z,21.51
2017-02-11T04:57:08.641Z,21.48
2017-02-11T04:57:36.767Z,21.46
2017-02-11T04:58:04.964Z,21.46
2017-02-11T04:58:32.965Z,21.49
2017-02-11T04:59:01.298Z,21.43
2017-02-11T04:59:29.431Z,21.48
2017-02-11T04:59:57.505Z,21.46
2017-02-11T05:00:25.647Z,21.46
2017-02-11T05:00:53.750Z,21.51
2017-02-11T05:01:21.671Z,21.41
2017-02-11T05:01:49.866Z,21.45
2017-02-11T05:02:17.852Z,21.41
2017-02-11T05:02:46.048Z,21.43
2017-02-11T05:03:14.232Z,21.46
2017-02-11T05:03:42.289Z,21.4
2017-02-11T05:04:10.586Z,21.46
2017-02-11T05:04:38.606Z,21.41
2017-02-11T05:05:06.877Z,21.41
2017-02-11T05:05:35.240Z,21.45
2017-02-11T05:06:03.392Z,21.41
2017-02-11T05:06:31.488Z,21.52
2017-02-11T05:06:59.640Z,21.51
2017-02-11T05:07:27.634Z,21.51
2017-02-11T05:07:55.721Z,21.49
2017-02-11T05:08:23.759Z,21.49
2017-02-11T05:08:51.962Z,21.48
2017-02-11T05:09:19.971Z,21.41
2017-02-11T05:09:48.146Z,21.41
2017-02-11T05:10:16.259Z,21.52
2017-02-11T05:10:44.561Z,21.55
2017-02-11T05:11:12.517Z,21.46
2017-02-11T05:11:40.554Z,21.53
2017-02-11T05:12:08.750Z,21.61
2017-02-11T05:12:36.852Z,21.61
2017-02-11T05:13:04.976Z,21.62
2017-02-11T05:13:33.055Z,21.61
2017-02-11T05:14:01.029Z,21.55
2017-02-11T05:14:29.165Z,21.68
2017-02-11T05:14:57.381Z,21.58
2017-02-11T05:15:25.754Z,21.64
2017-02-11T05:15:53.799Z,21.59
2017-02-11T05:16:21.601Z,21.64
2017-02-11T05:16:49.792Z,21.62
2017-02-11T05:17:18.224Z,21.66
2017-02-11T05:17:46.242Z,21.58
2017-02-11T05:18:14.343Z,21.55
2017-02-11T05:18:42.755Z,21.59
2017-02-11T05:19:10.877Z,21.59
2017-02-11T05:19:39.035Z,21.61
2017-02-11T05:20:07.152Z,21.59
2017-02-11T05:20:35.483Z,21.58
2017-02-11T05:21:03.693Z,21.55
2017-02-11T05:21:31.777Z,21.61
2017-02-11T05:21:59.952Z,21.61
2017-02-11T05:22:27.977Z,21.52
2017-02-11T05:22:56.230Z,21.53
2017-02-11T05:23:24.462Z,21.51
2017-02-11T05:23:52.662Z,21.48
2017-02-11T05:24:20.820Z,21.46
2017-02-11T05:24:48.953Z,21.46
2017-02-11T05:25:17.084Z,21.4
2017-02-11T05:25:45.312Z,21.38
2017-02-11T05:26:13.508Z,21.36
2017-02-11T05:26:41.640Z,21.4
2017-02-11T05:27:09.851Z,21.36
2017-02-11T05:27:37.976Z,21.49
2017-02-11T05:28:06.252Z,21.51
2017-02-11T05:28:34.323Z,21.34
2017-02-11T05:29:02.312Z,21.31
2017-02-11T05:29:30.253Z,21.45
2017-02-11T05:29:58.502Z,21.3
2017-02-11T05:30:26.609Z,21.37
2017-02-11T05:30:54.869Z,21.37
2017-02-11T05:31:22.788Z,21.37
2017-02-11T05:31:51.073Z,21.43
2017-02-11T05:32:19.313Z,21.43
2017-02-11T05:32:47.504Z,21.46
2017-02-11T05:33:15.540Z,21.45
2017-02-11T05:33:43.739Z,21.49
2017-02-11T05:34:11.719Z,21.51
2017-02-11T05:34:39.812Z,21.41
2017-02-11T05:35:07.907Z,21.4
2017-02-11T05:35:35.853Z,21.45
2017-02-11T05:36:04.158Z,21.46
2017-02-11T05:36:32.417Z,21.49
2017-02-11T05:37:00.785Z,21.4
2017-02-11T05:37:28.694Z,21.41
2017-02-11T05:37:56.697Z,21.45
2017-02-11T05:38:24.834Z,21.4
2017-02-11T05:38:53.289Z,21.45
2017-02-11T05:39:21.381Z,21.45
2017-02-11T05:39:49.490Z,21.36
2017-02-11T05:40:17.589Z,21.36
2017-02-11T05:40:45.773Z,21.37
2017-02-11T05:41:13.873Z,21.41
2017-02-11T05:41:41.974Z,21.4
2017-02-11T05:42:10.179Z,21.43
2017-02-11T05:42:38.297Z,21.38
2017-02-11T05:43:06.420Z,21.46
2017-02-11T05:43:34.634Z,21.37
2017-02-11T05:44:02.887Z,21.4
2017-02-11T05:44:30.861Z,21.38
2017-02-11T05:44:59.081Z,21.41
2017-02-11T05:45:27.213Z,21.41
2017-02-11T05:45:55.418Z,21.46
2017-02-11T05:46:23.536Z,21.41
2017-02-11T05:46:51.766Z,21.46
2017-02-11T05:47:19.885Z,21.41
2017-02-11T05:47:48.002Z,21.4
2017-02-11T05:48:16.080Z,21.41
2017-02-11T05:48:44.201Z,21.52
2017-02-11T05:49:12.235Z,21.51
2017-02-11T05:49:40.438Z,21.58
2017-02-11T05:50:08.442Z,21.59
2017-02-11T05:50:36.681Z,21.62
2017-02-11T05:51:04.873Z,21.66
2017-02-11T05:51:33.005Z,21.64
2017-02-11T05:52:01.034Z,21.59
2017-02-11T05:52:29.123Z,21.71
2017-02-11T05:52:57.301Z,21.68
2017-02-11T05:53:25.489Z,21.67
2017-02-11T05:53:53.663Z,21.74
2017-02-11T05:54:21.851Z,21.71
2017-02-11T05:54:49.972Z,21.73
2017-02-11T05:55:18.097Z,21.73
2017-02-11T05:55:46.303Z,21.8
2017-02-11T05:56:14.600Z,21.78
2017-02-11T05:56:42.580Z,21.85
2017-02-11T05:57:10.683Z,21.94
2017-02-11T05:57:38.864Z,21.92
2017-02-11T05:58:06.917Z,21.89
2017-02-11T05:58:35.097Z,21.97
2017-02-11T05:59:03.214Z,21.97
2017-02-11T05:59:31.065Z,22.05
2017-02-11T05:59:59.267Z,21.99
2017-02-11T06:00:27.291Z,21.97
2017-02-11T06:00:55.232Z,21.97
2017-02-11T06:01:23.443Z,22
2017-02-11T06:01:51.538Z,22
2017-02-11T06:02:19.537Z,22.02
2017-02-11T06:02:47.573Z,22.02
2017-02-11T06:03:15.818Z,22.08
2017-02-11T06:03:44.001Z,22.02
2017-02-11T06:04:11.986Z,21.94
2017-02-11T06:04:40.022Z,21.97